sensor_id;sensor_type;location;lat;lon;timestamp;temperature;humidity
17827;DHT22;9038;48.208;16.308;2022-09-27T00:00:10;15.20;71.90
17827;DHT22;9038;48.208;16.308;2022-09-27T00:02:12;15.10;71.70
17827;DHT22;9038;48.208;16.308;2022-09-27T00:04:14;15.10;72.00
17827;DHT22;9038;48.208;16.308;2022-09-27T00:06:22;15.10;72.00
17827;DHT22;9038;48.208;16.308;2022-09-27T00:08:24;15.10;72.00
17827;DHT22;9038;48.208;16.308;2022-09-27T00:10:26;15.10;72.00
17827;DHT22;9038;48.208;16.308;2022-09-27T00:12:30;15.10;72.00
17827;DHT22;9038;48.208;16.308;2022-09-27T00:14:32;15.10;72.00
17827;DHT22;9038;48.208;16.308;2022-09-27T00:16:36;15.10;72.10
17827;DHT22;9038;48.208;16.308;2022-09-27T00:18:39;15.10;72.00
17827;DHT22;9038;48.208;16.308;2022-09-27T00:20:40;15.10;72.00
17827;DHT22;9038;48.208;16.308;2022-09-27T00:22:42;15.10;72.00
17827;DHT22;9038;48.208;16.308;2022-09-27T00:24:44;15.10;72.50
17827;DHT22;9038;48.208;16.308;2022-09-27T00:26:46;15.10;72.00
17827;DHT22;9038;48.208;16.308;2022-09-27T00:28:50;15.10;72.00
17827;DHT22;9038;48.208;16.308;2022-09-27T00:30:52;15.10;72.00
17827;DHT22;9038;48.208;16.308;2022-09-27T00:32:54;15.00;72.00
17827;DHT22;9038;48.208;16.308;2022-09-27T00:34:56;15.00;72.00
17827;DHT22;9038;48.208;16.308;2022-09-27T00:36:58;15.00;72.00
17827;DHT22;9038;48.208;16.308;2022-09-27T00:39:00;15.00;72.10
17827;DHT22;9038;48.208;16.308;2022-09-27T00:41:02;15.00;71.90
17827;DHT22;9038;48.208;16.308;2022-09-27T00:43:14;15.00;71.90
17827;DHT22;9038;48.208;16.308;2022-09-27T00:45:17;14.90;71.80
17827;DHT22;9038;48.208;16.308;2022-09-27T00:47:23;14.90;71.80
17827;DHT22;9038;48.208;16.308;2022-09-27T00:49:29;14.90;71.90
17827;DHT22;9038;48.208;16.308;2022-09-27T00:51:33;14.90;72.20
17827;DHT22;9038;48.208;16.308;2022-09-27T00:53:40;14.90;72.20
17827;DHT22;9038;48.208;16.308;2022-09-27T00:55:49;14.90;72.50
17827;DHT22;9038;48.208;16.308;2022-09-27T00:57:52;14.80;72.30
17827;DHT22;9038;48.208;16.308;2022-09-27T00:59:58;14.80;72.70
17827;DHT22;9038;48.208;16.308;2022-09-27T01:02:04;14.80;72.80
17827;DHT22;9038;48.208;16.308;2022-09-27T01:04:09;14.80;72.70
17827;DHT22;9038;48.208;16.308;2022-09-27T01:06:12;14.80;72.30
17827;DHT22;9038;48.208;16.308;2022-09-27T01:08:15;14.70;72.00
17827;DHT22;9038;48.208;16.308;2022-09-27T01:10:17;14.60;72.10
17827;DHT22;9038;48.208;16.308;2022-09-27T01:12:24;14.60;72.40
17827;DHT22;9038;48.208;16.308;2022-09-27T01:14:52;14.60;72.50
17827;DHT22;9038;48.208;16.308;2022-09-27T01:17:04;14.60;72.90
17827;DHT22;9038;48.208;16.308;2022-09-27T01:19:15;14.60;72.80
17827;DHT22;9038;48.208;16.308;2022-09-27T01:24:16;14.60;72.70
17827;DHT22;9038;48.208;16.308;2022-09-27T01:26:39;14.50;72.60
17827;DHT22;9038;48.208;16.308;2022-09-27T01:28:55;14.50;72.80
17827;DHT22;9038;48.208;16.308;2022-09-27T01:31:02;14.50;72.90
17827;DHT22;9038;48.208;16.308;2022-09-27T01:33:23;14.40;72.90
17827;DHT22;9038;48.208;16.308;2022-09-27T01:35:31;14.40;73.30
17827;DHT22;9038;48.208;16.308;2022-09-27T01:37:39;14.40;72.90
17827;DHT22;9038;48.208;16.308;2022-09-27T01:39:50;14.40;73.30
17827;DHT22;9038;48.208;16.308;2022-09-27T01:42:03;14.40;73.30
17827;DHT22;9038;48.208;16.308;2022-09-27T01:44:11;14.40;73.30
17827;DHT22;9038;48.208;16.308;2022-09-27T01:46:19;14.30;73.00
17827;DHT22;9038;48.208;16.308;2022-09-27T01:48:22;14.30;72.90
17827;DHT22;9038;48.208;16.308;2022-09-27T01:50:29;14.30;72.90
17827;DHT22;9038;48.208;16.308;2022-09-27T01:52:36;14.30;73.20
17827;DHT22;9038;48.208;16.308;2022-09-27T01:54:43;14.30;73.20
17827;DHT22;9038;48.208;16.308;2022-09-27T01:56:49;14.20;73.00
17827;DHT22;9038;48.208;16.308;2022-09-27T01:58:57;14.20;73.10
17827;DHT22;9038;48.208;16.308;2022-09-27T02:01:01;14.20;73.20
17827;DHT22;9038;48.208;16.308;2022-09-27T02:03:09;14.20;73.10
17827;DHT22;9038;48.208;16.308;2022-09-27T02:05:13;14.20;73.10
17827;DHT22;9038;48.208;16.308;2022-09-27T02:07:21;14.20;73.10
17827;DHT22;9038;48.208;16.308;2022-09-27T02:09:26;14.20;73.30
17827;DHT22;9038;48.208;16.308;2022-09-27T02:11:32;14.20;73.10
17827;DHT22;9038;48.208;16.308;2022-09-27T02:13:39;14.10;73.00
17827;DHT22;9038;48.208;16.308;2022-09-27T02:15:49;14.10;73.00
17827;DHT22;9038;48.208;16.308;2022-09-27T02:17:55;14.10;73.10
17827;DHT22;9038;48.208;16.308;2022-09-27T02:20:09;14.10;73.30
17827;DHT22;9038;48.208;16.308;2022-09-27T02:22:15;14.10;73.30
17827;DHT22;9038;48.208;16.308;2022-09-27T02:24:28;14.00;73.20
17827;DHT22;9038;48.208;16.308;2022-09-27T02:26:35;14.10;73.50
17827;DHT22;9038;48.208;16.308;2022-09-27T02:28:41;14.00;73.40
17827;DHT22;9038;48.208;16.308;2022-09-27T02:30:44;14.00;73.60
17827;DHT22;9038;48.208;16.308;2022-09-27T02:32:46;14.10;73.80
17827;DHT22;9038;48.208;16.308;2022-09-27T02:34:49;14.10;74.00
17827;DHT22;9038;48.208;16.308;2022-09-27T02:36:53;14.20;74.00
17827;DHT22;9038;48.208;16.308;2022-09-27T02:38:55;14.20;73.30
17827;DHT22;9038;48.208;16.308;2022-09-27T02:40:57;14.10;73.00
17827;DHT22;9038;48.208;16.308;2022-09-27T02:42:59;14.10;73.20
17827;DHT22;9038;48.208;16.308;2022-09-27T02:45:02;14.10;73.00
17827;DHT22;9038;48.208;16.308;2022-09-27T02:47:17;14.00;72.90
17827;DHT22;9038;48.208;16.308;2022-09-27T02:49:44;14.00;72.90
17827;DHT22;9038;48.208;16.308;2022-09-27T02:51:59;14.00;73.70
17827;DHT22;9038;48.208;16.308;2022-09-27T02:54:12;14.00;73.10
17827;DHT22;9038;48.208;16.308;2022-09-27T02:56:23;14.00;73.60
17827;DHT22;9038;48.208;16.308;2022-09-27T02:58:41;14.00;73.50
17827;DHT22;9038;48.208;16.308;2022-09-27T03:00:50;14.00;73.80
17827;DHT22;9038;48.208;16.308;2022-09-27T03:02:58;14.00;73.90
17827;DHT22;9038;48.208;16.308;2022-09-27T03:05:06;14.00;73.50
17827;DHT22;9038;48.208;16.308;2022-09-27T03:07:10;14.00;73.40
17827;DHT22;9038;48.208;16.308;2022-09-27T03:09:17;14.00;73.40
17827;DHT22;9038;48.208;16.308;2022-09-27T03:11:19;14.00;73.50
17827;DHT22;9038;48.208;16.308;2022-09-27T03:13:21;13.90;73.40
17827;DHT22;9038;48.208;16.308;2022-09-27T03:15:23;13.90;73.30
17827;DHT22;9038;48.208;16.308;2022-09-27T03:17:25;13.90;73.40
17827;DHT22;9038;48.208;16.308;2022-09-27T03:19:27;13.90;73.30
17827;DHT22;9038;48.208;16.308;2022-09-27T03:21:29;13.90;73.20
17827;DHT22;9038;48.208;16.308;2022-09-27T03:23:33;13.80;73.20
17827;DHT22;9038;48.208;16.308;2022-09-27T03:25:35;13.80;73.10
17827;DHT22;9038;48.208;16.308;2022-09-27T03:27:37;13.80;73.00
17827;DHT22;9038;48.208;16.308;2022-09-27T03:29:38;13.70;73.20
17827;DHT22;9038;48.208;16.308;2022-09-27T03:31:40;13.60;73.30
17827;DHT22;9038;48.208;16.308;2022-09-27T03:33:42;13.60;73.50
17827;DHT22;9038;48.208;16.308;2022-09-27T03:35:44;13.60;73.80
17827;DHT22;9038;48.208;16.308;2022-09-27T03:37:46;13.60;74.00
17827;DHT22;9038;48.208;16.308;2022-09-27T03:39:50;13.60;73.90
17827;DHT22;9038;48.208;16.308;2022-09-27T03:41:51;13.60;73.90
17827;DHT22;9038;48.208;16.308;2022-09-27T03:43:53;13.60;74.10
17827;DHT22;9038;48.208;16.308;2022-09-27T03:45:57;13.60;74.00
17827;DHT22;9038;48.208;16.308;2022-09-27T03:47:59;13.70;74.10
17827;DHT22;9038;48.208;16.308;2022-09-27T03:50:01;13.70;74.00
17827;DHT22;9038;48.208;16.308;2022-09-27T03:52:03;13.80;73.70
17827;DHT22;9038;48.208;16.308;2022-09-27T03:54:05;13.80;73.70
17827;DHT22;9038;48.208;16.308;2022-09-27T03:56:09;13.90;73.80
17827;DHT22;9038;48.208;16.308;2022-09-27T03:58:10;13.90;73.80
17827;DHT22;9038;48.208;16.308;2022-09-27T04:00:13;14.00;73.60
17827;DHT22;9038;48.208;16.308;2022-09-27T04:02:15;14.00;73.60
17827;DHT22;9038;48.208;16.308;2022-09-27T04:04:17;14.10;73.60
17827;DHT22;9038;48.208;16.308;2022-09-27T04:06:19;14.10;73.30
17827;DHT22;9038;48.208;16.308;2022-09-27T04:08:22;14.10;73.20
17827;DHT22;9038;48.208;16.308;2022-09-27T04:10:24;14.20;73.10
17827;DHT22;9038;48.208;16.308;2022-09-27T04:12:28;14.20;73.10
17827;DHT22;9038;48.208;16.308;2022-09-27T04:14:29;14.20;72.90
17827;DHT22;9038;48.208;16.308;2022-09-27T04:16:31;14.30;73.00
17827;DHT22;9038;48.208;16.308;2022-09-27T04:18:33;14.20;72.80
17827;DHT22;9038;48.208;16.308;2022-09-27T04:20:35;14.30;73.10
17827;DHT22;9038;48.208;16.308;2022-09-27T04:22:38;14.20;72.70
17827;DHT22;9038;48.208;16.308;2022-09-27T04:24:41;14.30;72.80
17827;DHT22;9038;48.208;16.308;2022-09-27T04:26:43;14.30;72.70
17827;DHT22;9038;48.208;16.308;2022-09-27T04:28:46;14.30;72.50
17827;DHT22;9038;48.208;16.308;2022-09-27T04:30:50;14.40;72.60
17827;DHT22;9038;48.208;16.308;2022-09-27T04:32:53;14.40;72.60
17827;DHT22;9038;48.208;16.308;2022-09-27T04:34:55;14.40;72.30
17827;DHT22;9038;48.208;16.308;2022-09-27T04:37:15;14.50;72.40
17827;DHT22;9038;48.208;16.308;2022-09-27T04:39:16;14.40;72.30
17827;DHT22;9038;48.208;16.308;2022-09-27T04:41:18;14.50;72.20
17827;DHT22;9038;48.208;16.308;2022-09-27T04:43:21;14.50;72.30
17827;DHT22;9038;48.208;16.308;2022-09-27T04:45:25;14.50;72.30
17827;DHT22;9038;48.208;16.308;2022-09-27T04:47:27;14.50;72.00
17827;DHT22;9038;48.208;16.308;2022-09-27T04:49:29;14.50;71.90
17827;DHT22;9038;48.208;16.308;2022-09-27T04:51:31;14.60;71.80
17827;DHT22;9038;48.208;16.308;2022-09-27T04:53:33;14.60;71.50
17827;DHT22;9038;48.208;16.308;2022-09-27T04:55:35;14.60;71.50
17827;DHT22;9038;48.208;16.308;2022-09-27T04:57:37;14.70;72.00
17827;DHT22;9038;48.208;16.308;2022-09-27T04:59:39;14.70;72.30
17827;DHT22;9038;48.208;16.308;2022-09-27T05:01:43;14.70;71.60
17827;DHT22;9038;48.208;16.308;2022-09-27T05:03:45;14.70;71.20
17827;DHT22;9038;48.208;16.308;2022-09-27T05:05:47;14.60;71.20
17827;DHT22;9038;48.208;16.308;2022-09-27T05:07:49;14.60;71.40
17827;DHT22;9038;48.208;16.308;2022-09-27T05:09:51;14.60;71.20
17827;DHT22;9038;48.208;16.308;2022-09-27T05:11:53;14.60;71.10
17827;DHT22;9038;48.208;16.308;2022-09-27T05:13:55;14.60;71.30
17827;DHT22;9038;48.208;16.308;2022-09-27T05:16:01;14.60;71.30
17827;DHT22;9038;48.208;16.308;2022-09-27T05:18:05;14.50;71.40
17827;DHT22;9038;48.208;16.308;2022-09-27T05:20:08;14.50;71.40
17827;DHT22;9038;48.208;16.308;2022-09-27T05:22:11;14.50;71.40
17827;DHT22;9038;48.208;16.308;2022-09-27T05:24:12;14.50;71.30
17827;DHT22;9038;48.208;16.308;2022-09-27T05:26:14;14.60;71.30
17827;DHT22;9038;48.208;16.308;2022-09-27T05:28:16;14.60;71.10
17827;DHT22;9038;48.208;16.308;2022-09-27T05:30:18;14.60;71.20
17827;DHT22;9038;48.208;16.308;2022-09-27T05:32:20;14.70;71.30
17827;DHT22;9038;48.208;16.308;2022-09-27T05:34:24;14.70;70.90
17827;DHT22;9038;48.208;16.308;2022-09-27T05:36:26;14.80;71.10
17827;DHT22;9038;48.208;16.308;2022-09-27T05:38:28;14.80;70.80
17827;DHT22;9038;48.208;16.308;2022-09-27T05:40:29;14.90;70.60
17827;DHT22;9038;48.208;16.308;2022-09-27T05:42:32;14.90;70.90
17827;DHT22;9038;48.208;16.308;2022-09-27T05:44:38;14.90;70.00
17827;DHT22;9038;48.208;16.308;2022-09-27T05:46:40;15.00;69.90
17827;DHT22;9038;48.208;16.308;2022-09-27T05:48:42;15.00;69.90
17827;DHT22;9038;48.208;16.308;2022-09-27T05:50:45;15.00;69.40
17827;DHT22;9038;48.208;16.308;2022-09-27T05:52:47;15.10;70.00
17827;DHT22;9038;48.208;16.308;2022-09-27T05:54:49;15.10;69.60
17827;DHT22;9038;48.208;16.308;2022-09-27T05:56:53;15.20;69.80
17827;DHT22;9038;48.208;16.308;2022-09-27T05:58:57;15.30;69.70
17827;DHT22;9038;48.208;16.308;2022-09-27T06:00:59;15.30;69.20
17827;DHT22;9038;48.208;16.308;2022-09-27T06:03:02;15.30;69.20
17827;DHT22;9038;48.208;16.308;2022-09-27T06:05:05;15.40;69.00
17827;DHT22;9038;48.208;16.308;2022-09-27T06:07:09;15.40;68.60
17827;DHT22;9038;48.208;16.308;2022-09-27T06:09:11;15.50;68.70
17827;DHT22;9038;48.208;16.308;2022-09-27T06:11:13;15.50;68.90
17827;DHT22;9038;48.208;16.308;2022-09-27T06:13:15;15.50;69.10
17827;DHT22;9038;48.208;16.308;2022-09-27T06:15:17;15.60;69.10
17827;DHT22;9038;48.208;16.308;2022-09-27T06:17:19;15.60;69.10
17827;DHT22;9038;48.208;16.308;2022-09-27T06:19:21;15.60;69.20
17827;DHT22;9038;48.208;16.308;2022-09-27T06:21:23;15.60;69.50
17827;DHT22;9038;48.208;16.308;2022-09-27T06:23:29;15.70;69.60
17827;DHT22;9038;48.208;16.308;2022-09-27T06:25:32;15.70;69.50
17827;DHT22;9038;48.208;16.308;2022-09-27T06:27:34;15.80;69.30
17827;DHT22;9038;48.208;16.308;2022-09-27T06:29:36;15.80;69.40
17827;DHT22;9038;48.208;16.308;2022-09-27T06:31:38;15.90;69.40
17827;DHT22;9038;48.208;16.308;2022-09-27T06:33:40;15.90;69.10
17827;DHT22;9038;48.208;16.308;2022-09-27T06:35:42;15.90;68.80
17827;DHT22;9038;48.208;16.308;2022-09-27T06:37:44;15.90;68.80
17827;DHT22;9038;48.208;16.308;2022-09-27T06:39:48;16.10;69.10
17827;DHT22;9038;48.208;16.308;2022-09-27T06:41:53;16.10;68.80
17827;DHT22;9038;48.208;16.308;2022-09-27T06:43:57;16.20;69.20
17827;DHT22;9038;48.208;16.308;2022-09-27T06:45:59;16.30;69.00
17827;DHT22;9038;48.208;16.308;2022-09-27T06:48:06;16.40;68.40
17827;DHT22;9038;48.208;16.308;2022-09-27T06:50:08;16.40;68.10
17827;DHT22;9038;48.208;16.308;2022-09-27T06:52:11;16.40;67.80
17827;DHT22;9038;48.208;16.308;2022-09-27T06:54:13;16.40;67.60
17827;DHT22;9038;48.208;16.308;2022-09-27T06:56:17;16.50;68.60
17827;DHT22;9038;48.208;16.308;2022-09-27T06:58:18;16.60;67.90
17827;DHT22;9038;48.208;16.308;2022-09-27T07:00:38;16.70;67.70
17827;DHT22;9038;48.208;16.308;2022-09-27T07:02:39;16.80;67.70
17827;DHT22;9038;48.208;16.308;2022-09-27T07:04:41;16.90;67.80
17827;DHT22;9038;48.208;16.308;2022-09-27T07:06:44;16.90;67.30
17827;DHT22;9038;48.208;16.308;2022-09-27T07:08:49;16.90;66.70
17827;DHT22;9038;48.208;16.308;2022-09-27T07:10:51;16.80;67.30
17827;DHT22;9038;48.208;16.308;2022-09-27T07:12:56;16.70;66.60
17827;DHT22;9038;48.208;16.308;2022-09-27T07:14:59;16.70;66.40
17827;DHT22;9038;48.208;16.308;2022-09-27T07:17:01;16.70;67.20
17827;DHT22;9038;48.208;16.308;2022-09-27T07:19:03;16.70;67.50
17827;DHT22;9038;48.208;16.308;2022-09-27T07:21:07;16.70;67.60
17827;DHT22;9038;48.208;16.308;2022-09-27T07:23:10;16.80;67.70
17827;DHT22;9038;48.208;16.308;2022-09-27T07:25:12;16.80;67.50
17827;DHT22;9038;48.208;16.308;2022-09-27T07:27:14;16.90;67.00
17827;DHT22;9038;48.208;16.308;2022-09-27T07:29:18;16.90;66.70
17827;DHT22;9038;48.208;16.308;2022-09-27T07:31:20;16.80;67.70
17827;DHT22;9038;48.208;16.308;2022-09-27T07:33:22;16.80;68.20
17827;DHT22;9038;48.208;16.308;2022-09-27T07:35:25;16.80;67.10
17827;DHT22;9038;48.208;16.308;2022-09-27T07:37:27;16.80;67.70
17827;DHT22;9038;48.208;16.308;2022-09-27T07:39:29;16.80;68.40
17827;DHT22;9038;48.208;16.308;2022-09-27T07:41:31;16.80;68.40
17827;DHT22;9038;48.208;16.308;2022-09-27T07:43:33;16.80;69.10
17827;DHT22;9038;48.208;16.308;2022-09-27T07:45:36;16.80;69.00
17827;DHT22;9038;48.208;16.308;2022-09-27T07:47:39;16.80;69.30
17827;DHT22;9038;48.208;16.308;2022-09-27T07:49:41;16.80;69.20
17827;DHT22;9038;48.208;16.308;2022-09-27T07:51:43;16.70;69.60
17827;DHT22;9038;48.208;16.308;2022-09-27T07:53:44;16.70;70.20
17827;DHT22;9038;48.208;16.308;2022-09-27T07:55:49;16.60;70.00
17827;DHT22;9038;48.208;16.308;2022-09-27T07:58:01;16.50;70.00
17827;DHT22;9038;48.208;16.308;2022-09-27T08:00:05;16.50;70.80
17827;DHT22;9038;48.208;16.308;2022-09-27T08:02:13;16.40;71.40
17827;DHT22;9038;48.208;16.308;2022-09-27T08:04:15;16.30;71.80
17827;DHT22;9038;48.208;16.308;2022-09-27T08:06:17;16.30;71.90
17827;DHT22;9038;48.208;16.308;2022-09-27T08:08:18;16.30;72.10
17827;DHT22;9038;48.208;16.308;2022-09-27T08:10:20;16.10;72.30
17827;DHT22;9038;48.208;16.308;2022-09-27T08:12:24;16.00;72.00
17827;DHT22;9038;48.208;16.308;2022-09-27T08:14:26;15.90;72.40
17827;DHT22;9038;48.208;16.308;2022-09-27T08:16:29;15.70;71.90
17827;DHT22;9038;48.208;16.308;2022-09-27T08:18:34;15.60;72.30
17827;DHT22;9038;48.208;16.308;2022-09-27T08:20:36;15.40;72.70
17827;DHT22;9038;48.208;16.308;2022-09-27T08:22:40;15.30;73.40
17827;DHT22;9038;48.208;16.308;2022-09-27T08:24:42;15.10;74.20
17827;DHT22;9038;48.208;16.308;2022-09-27T08:26:43;15.00;75.50
17827;DHT22;9038;48.208;16.308;2022-09-27T08:28:46;14.90;77.30
17827;DHT22;9038;48.208;16.308;2022-09-27T08:30:48;14.90;77.10
17827;DHT22;9038;48.208;16.308;2022-09-27T08:32:54;14.80;76.50
17827;DHT22;9038;48.208;16.308;2022-09-27T08:34:57;14.90;75.60
17827;DHT22;9038;48.208;16.308;2022-09-27T08:36:59;15.00;75.90
17827;DHT22;9038;48.208;16.308;2022-09-27T08:39:02;15.00;74.90
17827;DHT22;9038;48.208;16.308;2022-09-27T08:41:07;15.00;74.30
17827;DHT22;9038;48.208;16.308;2022-09-27T08:43:15;15.00;74.00
17827;DHT22;9038;48.208;16.308;2022-09-27T08:45:25;15.10;74.10
17827;DHT22;9038;48.208;16.308;2022-09-27T08:47:34;15.10;73.80
17827;DHT22;9038;48.208;16.308;2022-09-27T08:49:40;15.10;74.10
17827;DHT22;9038;48.208;16.308;2022-09-27T08:51:48;15.10;74.30
17827;DHT22;9038;48.208;16.308;2022-09-27T08:53:56;15.10;74.20
17827;DHT22;9038;48.208;16.308;2022-09-27T08:56:00;15.10;74.10
17827;DHT22;9038;48.208;16.308;2022-09-27T08:58:11;15.10;73.10
17827;DHT22;9038;48.208;16.308;2022-09-27T09:00:14;15.10;73.50
17827;DHT22;9038;48.208;16.308;2022-09-27T09:02:18;15.10;72.90
17827;DHT22;9038;48.208;16.308;2022-09-27T09:04:25;15.10;72.50
17827;DHT22;9038;48.208;16.308;2022-09-27T09:06:38;15.20;73.10
17827;DHT22;9038;48.208;16.308;2022-09-27T09:08:51;15.30;70.80
17827;DHT22;9038;48.208;16.308;2022-09-27T09:11:05;15.40;71.20
17827;DHT22;9038;48.208;16.308;2022-09-27T09:13:39;15.50;71.40
17827;DHT22;9038;48.208;16.308;2022-09-27T09:15:47;15.40;69.30
17827;DHT22;9038;48.208;16.308;2022-09-27T09:18:17;15.40;71.50
17827;DHT22;9038;48.208;16.308;2022-09-27T09:20:33;15.30;69.90
17827;DHT22;9038;48.208;16.308;2022-09-27T09:22:53;15.30;71.90
17827;DHT22;9038;48.208;16.308;2022-09-27T09:25:14;15.30;71.20
17827;DHT22;9038;48.208;16.308;2022-09-27T09:27:24;15.40;71.20
17827;DHT22;9038;48.208;16.308;2022-09-27T09:29:46;15.50;71.00
17827;DHT22;9038;48.208;16.308;2022-09-27T09:31:58;15.30;69.20
17827;DHT22;9038;48.208;16.308;2022-09-27T09:34:08;15.30;71.40
17827;DHT22;9038;48.208;16.308;2022-09-27T09:36:23;15.30;71.10
17827;DHT22;9038;48.208;16.308;2022-09-27T09:38:32;15.40;71.90
17827;DHT22;9038;48.208;16.308;2022-09-27T09:40:40;15.50;71.10
17827;DHT22;9038;48.208;16.308;2022-09-27T09:42:47;15.60;70.30
17827;DHT22;9038;48.208;16.308;2022-09-27T09:44:56;15.70;69.60
17827;DHT22;9038;48.208;16.308;2022-09-27T09:47:01;15.70;69.10
17827;DHT22;9038;48.208;16.308;2022-09-27T09:49:10;15.80;69.70
17827;DHT22;9038;48.208;16.308;2022-09-27T09:51:19;15.90;69.20
17827;DHT22;9038;48.208;16.308;2022-09-27T09:53:37;15.90;67.50
17827;DHT22;9038;48.208;16.308;2022-09-27T09:55:45;15.90;68.20
17827;DHT22;9038;48.208;16.308;2022-09-27T09:57:56;15.90;68.40
17827;DHT22;9038;48.208;16.308;2022-09-27T10:00:05;16.00;68.90
17827;DHT22;9038;48.208;16.308;2022-09-27T10:02:19;16.20;68.80
17827;DHT22;9038;48.208;16.308;2022-09-27T10:04:25;16.20;67.10
17827;DHT22;9038;48.208;16.308;2022-09-27T10:06:29;16.40;67.70
17827;DHT22;9038;48.208;16.308;2022-09-27T10:08:31;16.60;67.90
17827;DHT22;9038;48.208;16.308;2022-09-27T10:10:33;16.70;67.00
17827;DHT22;9038;48.208;16.308;2022-09-27T10:12:37;16.90;66.90
17827;DHT22;9038;48.208;16.308;2022-09-27T10:14:39;17.30;68.20
17827;DHT22;9038;48.208;16.308;2022-09-27T10:16:46;17.60;65.70
17827;DHT22;9038;48.208;16.308;2022-09-27T10:18:51;17.80;63.10
17827;DHT22;9038;48.208;16.308;2022-09-27T10:20:55;18.10;62.10
17827;DHT22;9038;48.208;16.308;2022-09-27T10:23:03;18.20;60.10
17827;DHT22;9038;48.208;16.308;2022-09-27T10:25:07;18.30;59.70
17827;DHT22;9038;48.208;16.308;2022-09-27T10:27:09;18.50;60.80
17827;DHT22;9038;48.208;16.308;2022-09-27T10:29:21;18.60;60.10
17827;DHT22;9038;48.208;16.308;2022-09-27T10:31:34;18.70;59.70
17827;DHT22;9038;48.208;16.308;2022-09-27T10:33:38;18.80;59.30
17827;DHT22;9038;48.208;16.308;2022-09-27T10:35:51;18.80;59.20
17827;DHT22;9038;48.208;16.308;2022-09-27T10:37:53;18.90;60.10
17827;DHT22;9038;48.208;16.308;2022-09-27T10:39:55;18.80;58.90
17827;DHT22;9038;48.208;16.308;2022-09-27T10:41:57;18.80;57.80
17827;DHT22;9038;48.208;16.308;2022-09-27T10:44:23;19.00;57.90
17827;DHT22;9038;48.208;16.308;2022-09-27T10:46:26;19.10;56.90
17827;DHT22;9038;48.208;16.308;2022-09-27T10:48:30;19.50;57.40
17827;DHT22;9038;48.208;16.308;2022-09-27T10:50:32;19.90;57.70
17827;DHT22;9038;48.208;16.308;2022-09-27T10:52:38;20.40;57.30
17827;DHT22;9038;48.208;16.308;2022-09-27T10:54:42;20.60;54.30
17827;DHT22;9038;48.208;16.308;2022-09-27T10:56:55;20.70;53.80
17827;DHT22;9038;48.208;16.308;2022-09-27T10:58:58;20.50;52.60
17827;DHT22;9038;48.208;16.308;2022-09-27T11:01:03;20.10;52.70
17827;DHT22;9038;48.208;16.308;2022-09-27T11:03:12;19.70;53.70
17827;DHT22;9038;48.208;16.308;2022-09-27T11:05:29;19.30;54.60
17827;DHT22;9038;48.208;16.308;2022-09-27T11:07:34;19.00;55.40
17827;DHT22;9038;48.208;16.308;2022-09-27T11:09:46;18.80;55.20
17827;DHT22;9038;48.208;16.308;2022-09-27T11:11:49;18.70;56.40
17827;DHT22;9038;48.208;16.308;2022-09-27T11:13:59;18.70;55.70
17827;DHT22;9038;48.208;16.308;2022-09-27T11:16:23;18.70;55.60
17827;DHT22;9038;48.208;16.308;2022-09-27T11:18:33;18.60;56.40
17827;DHT22;9038;48.208;16.308;2022-09-27T11:20:42;18.60;57.50
17827;DHT22;9038;48.208;16.308;2022-09-27T11:23:20;18.70;57.50
17827;DHT22;9038;48.208;16.308;2022-09-27T11:25:30;18.70;56.50
17827;DHT22;9038;48.208;16.308;2022-09-27T11:27:47;18.50;53.80
17827;DHT22;9038;48.208;16.308;2022-09-27T11:30:03;18.40;54.50
17827;DHT22;9038;48.208;16.308;2022-09-27T11:32:15;18.50;55.70
17827;DHT22;9038;48.208;16.308;2022-09-27T11:34:34;18.50;54.90
17827;DHT22;9038;48.208;16.308;2022-09-27T11:36:50;18.40;54.50
17827;DHT22;9038;48.208;16.308;2022-09-27T11:39:03;18.30;54.60
17827;DHT22;9038;48.208;16.308;2022-09-27T11:41:18;18.30;55.30
17827;DHT22;9038;48.208;16.308;2022-09-27T11:43:45;18.30;55.30
17827;DHT22;9038;48.208;16.308;2022-09-27T11:45:54;18.20;55.50
17827;DHT22;9038;48.208;16.308;2022-09-27T11:48:10;18.20;55.70
17827;DHT22;9038;48.208;16.308;2022-09-27T11:50:39;18.10;56.70
17827;DHT22;9038;48.208;16.308;2022-09-27T11:52:55;18.10;56.50
17827;DHT22;9038;48.208;16.308;2022-09-27T11:55:12;18.00;57.10
17827;DHT22;9038;48.208;16.308;2022-09-27T11:57:18;17.80;57.80
17827;DHT22;9038;48.208;16.308;2022-09-27T11:59:53;17.70;57.90
17827;DHT22;9038;48.208;16.308;2022-09-27T12:02:08;17.80;58.40
17827;DHT22;9038;48.208;16.308;2022-09-27T12:04:32;17.90;58.30
17827;DHT22;9038;48.208;16.308;2022-09-27T12:06:45;17.90;57.90
17827;DHT22;9038;48.208;16.308;2022-09-27T12:09:00;18.00;57.10
17827;DHT22;9038;48.208;16.308;2022-09-27T12:11:11;18.10;57.20
17827;DHT22;9038;48.208;16.308;2022-09-27T12:13:21;18.10;57.10
17827;DHT22;9038;48.208;16.308;2022-09-27T12:15:26;18.20;56.80
17827;DHT22;9038;48.208;16.308;2022-09-27T12:17:32;18.10;56.20
17827;DHT22;9038;48.208;16.308;2022-09-27T12:19:38;18.00;56.50
17827;DHT22;9038;48.208;16.308;2022-09-27T12:21:41;17.90;56.20
17827;DHT22;9038;48.208;16.308;2022-09-27T12:23:45;18.00;56.70
17827;DHT22;9038;48.208;16.308;2022-09-27T12:25:51;18.10;56.20
17827;DHT22;9038;48.208;16.308;2022-09-27T12:28:00;18.00;56.10
17827;DHT22;9038;48.208;16.308;2022-09-27T12:30:03;18.00;55.50
17827;DHT22;9038;48.208;16.308;2022-09-27T12:32:11;18.00;55.80
17827;DHT22;9038;48.208;16.308;2022-09-27T12:34:18;18.00;56.00
17827;DHT22;9038;48.208;16.308;2022-09-27T12:36:30;18.00;56.00
17827;DHT22;9038;48.208;16.308;2022-09-27T12:38:40;18.20;55.80
17827;DHT22;9038;48.208;16.308;2022-09-27T12:40:47;18.30;55.70
17827;DHT22;9038;48.208;16.308;2022-09-27T12:42:53;18.40;55.40
17827;DHT22;9038;48.208;16.308;2022-09-27T12:44:57;18.40;54.30
17827;DHT22;9038;48.208;16.308;2022-09-27T12:47:05;18.30;54.20
17827;DHT22;9038;48.208;16.308;2022-09-27T12:49:13;18.20;54.70
17827;DHT22;9038;48.208;16.308;2022-09-27T12:51:17;18.30;55.00
17827;DHT22;9038;48.208;16.308;2022-09-27T12:53:25;18.30;54.80
17827;DHT22;9038;48.208;16.308;2022-09-27T13:00:42;18.00;55.40
17827;DHT22;9038;48.208;16.308;2022-09-27T13:03:15;17.80;55.40
17827;DHT22;9038;48.208;16.308;2022-09-27T13:08:14;17.70;55.90
17827;DHT22;9038;48.208;16.308;2022-09-27T13:10:32;17.60;56.10
17827;DHT22;9038;48.208;16.308;2022-09-27T13:12:36;17.60;56.50
17827;DHT22;9038;48.208;16.308;2022-09-27T13:14:45;17.40;56.30
17827;DHT22;9038;48.208;16.308;2022-09-27T13:16:49;17.30;56.50
17827;DHT22;9038;48.208;16.308;2022-09-27T13:18:53;17.10;56.90
17827;DHT22;9038;48.208;16.308;2022-09-27T13:20:56;17.10;57.50
17827;DHT22;9038;48.208;16.308;2022-09-27T13:22:58;17.00;57.50
17827;DHT22;9038;48.208;16.308;2022-09-27T13:25:00;17.00;57.50
17827;DHT22;9038;48.208;16.308;2022-09-27T13:27:39;17.00;57.70